LICR Airport Information

Runway Information
Runway 11 Length 5574 ft width 148 ft
Elevation 38 ft Threshold 0 ft Heading 113
Runway 29 Length 5574 ft Width 148 ft
Elevation 43 ft Threshold 0 ft Heading 293
Runway 15 Length 6549 ft width 148 ft
Elevation 84 ft Threshold 840 ft Heading 153
Runway 33 Length 6549 ft Width 148 ft
Elevation 34 ft Threshold 164 ft Heading 333
Airport Frequencies
Type APP Name APP Frequency 120.275 MHZ
Type TWR Name TWR Frequency 118.25 MHZ
Airport Navaids
Type VOR-DME Name Reggio Calabria Frequency 111000 KHZ
Type NDB Name Reggio Calabria Frequency 325 KHZ
Airport Weather Information & NOTAM
ADDS - METARS form results

(0617 UTC 19 August 2018)
 
METAR text: LICR 190550Z 06005KT CAVOK 27/19 Q1015
Conditions at: LICR (REGGIO CALABRIA , IT) observed 0550 UTC 19 August 2018
Temperature: 27.0°C (81°F)
Dewpoint: 19.0°C (66°F) [RH = 62%]
Pressure (altimeter): 29.97 inches Hg (1015.0 mb)
Winds: from the ENE (60 degrees) at 6 MPH (5 knots; 2.6 m/s)
Visibility: 6 or more miles (10+ km)
Ceiling: ceiling and visibility are OK
Clouds: unknown
Weather: no significant weather observed at this time